Time;durP1;ratioP1;P1;durP2;ratioP2;P2;SDS_P1;SDS_P2;PMS_P1;PMS_P2;Temp;Humidity;BMP_temperature;BMP_pressure;BME280_temperature;BME280_humidity;BME280_pressure;Samples;Min_cycle;Max_cycle;Signal;HPM_P1;HPM_P2
2021/04/29 00:00:15;;;;;;;36.47;24.43;;;8.40;99.90;;;;;;5017101;28;20227;-78
2021/04/29 00:02:43;;;;;;;40.47;25.00;;;8.40;99.90;;;;;;5016435;28;20197;-77
2021/04/29 00:05:11;;;;;;;38.77;24.67;;;8.30;99.90;;;;;;5021202;28;20699;-77
2021/04/29 00:07:38;;;;;;;37.50;25.07;;;8.30;99.90;;;;;;5015527;28;20729;-78
2021/04/29 00:10:05;;;;;;;41.57;25.97;;;8.20;99.90;;;;;;5014828;28;20200;-78
2021/04/29 00:12:32;;;;;;;37.70;26.20;;;8.20;99.90;;;;;;5024228;28;20637;-79
2021/04/29 00:14:59;;;;;;;39.97;25.60;;;8.10;99.90;;;;;;5028179;28;20654;-77
2021/04/29 00:17:26;;;;;;;39.50;27.17;;;8.10;99.90;;;;;;5026904;28;20205;-77
2021/04/29 00:19:53;;;;;;;42.03;27.57;;;8.10;99.90;;;;;;5016255;28;20217;-77
2021/04/29 00:22:19;;;;;;;46.27;28.60;;;8.00;99.90;;;;;;5030873;28;20200;-76
2021/04/29 00:24:46;;;;;;;42.23;29.20;;;8.00;99.90;;;;;;5030822;28;20204;-77
2021/04/29 00:27:13;;;;;;;42.57;30.17;;;8.00;99.90;;;;;;5036825;28;20287;-77
2021/04/29 00:29:39;;;;;;;50.23;31.33;;;7.90;99.90;;;;;;5024110;28;20232;-77
2021/04/29 00:32:07;;;;;;;53.30;31.27;;;7.90;99.90;;;;;;5024503;28;20204;-77
2021/04/29 00:34:33;;;;;;;46.10;30.93;;;7.90;99.90;;;;;;5014678;28;20201;-79
2021/04/29 00:37:00;;;;;;;43.37;30.00;;;7.80;99.90;;;;;;5029766;28;20196;-77
2021/04/29 00:39:26;;;;;;;42.87;30.37;;;7.80;99.90;;;;;;5028623;28;20282;-78
2021/04/29 00:41:53;;;;;;;51.97;31.60;;;7.80;99.90;;;;;;5036073;28;20193;-79
2021/04/29 00:44:19;;;;;;;40.37;28.70;;;7.80;99.90;;;;;;5035190;28;20224;-78
2021/04/29 00:46:46;;;;;;;43.07;30.50;;;7.80;99.90;;;;;;5035779;28;20646;-79
2021/04/29 00:49:14;;;;;;;47.40;31.03;;;7.80;99.90;;;;;;5029224;28;20204;-77
2021/04/29 00:51:40;;;;;;;51.33;29.10;;;7.80;99.90;;;;;;5028052;28;20205;-79
2021/04/29 00:54:06;;;;;;;45.93;30.33;;;7.70;99.90;;;;;;5021005;28;20205;-77
2021/04/29 00:56:33;;;;;;;46.93;31.27;;;7.70;99.90;;;;;;5015959;28;20197;-78
2021/04/29 00:58:59;;;;;;;51.00;31.63;;;7.70;99.90;;;;;;5011909;28;20200;-81
2021/04/29 01:01:27;;;;;;;46.73;31.17;;;7.80;99.90;;;;;;5031534;28;20212;-79
2021/04/29 01:03:57;;;;;;;52.57;32.57;;;7.80;99.90;;;;;;5013497;28;20255;-80
2021/04/29 01:06:31;;;;;;;51.50;33.27;;;7.90;99.90;;;;;;5025746;28;20192;-79
2021/04/29 01:09:02;;;;;;;51.87;32.87;;;7.80;99.90;;;;;;5025572;28;20201;-81
2021/04/29 01:11:33;;;;;;;50.63;34.03;;;7.80;99.90;;;;;;5021271;28;20203;-77
2021/04/29 01:14:05;;;;;;;51.03;31.30;;;7.80;99.90;;;;;;5026187;28;20530;-79
2021/04/29 01:16:32;;;;;;;58.43;33.63;;;7.80;99.90;;;;;;5023008;28;20197;-81
2021/04/29 01:19:00;;;;;;;47.80;32.93;;;7.70;99.90;;;;;;5014629;28;20197;-80
2021/04/29 01:21:29;;;;;;;56.60;32.73;;;7.70;99.90;;;;;;5030995;28;20204;-78
2021/04/29 01:23:58;;;;;;;54.03;32.87;;;7.80;99.90;;;;;;5034493;28;20193;-81
2021/04/29 01:26:50;;;;;;;58.67;33.53;;;7.80;99.90;;;;;;5029141;28;20203;-80
2021/04/29 01:29:20;;;;;;;61.80;34.27;;;7.80;99.90;;;;;;5021690;28;20240;-76
2021/04/29 01:31:49;;;;;;;62.47;36.03;;;7.80;99.90;;;;;;5029035;28;20230;-81
2021/04/29 01:34:18;;;;;;;63.37;36.17;;;7.90;99.90;;;;;;5017963;28;20681;-80
2021/04/29 01:36:45;;;;;;;60.67;36.40;;;7.90;99.90;;;;;;5025132;28;20200;-80
2021/04/29 01:39:14;;;;;;;61.50;37.80;;;7.90;99.90;;;;;;5026117;28;20205;-78
2021/04/29 01:41:44;;;;;;;62.77;36.70;;;7.90;99.90;;;;;;5031960;28;20200;-79
2021/04/29 01:44:12;;;;;;;59.47;37.30;;;7.90;99.90;;;;;;5025794;28;20200;-83
2021/04/29 01:46:40;;;;;;;63.83;38.40;;;7.80;99.90;;;;;;5030451;28;20641;-84
2021/04/29 01:49:09;;;;;;;54.77;36.70;;;7.80;99.90;;;;;;5027640;28;20201;-78
2021/04/29 01:51:38;;;;;;;57.03;37.13;;;7.70;99.90;;;;;;5016066;28;20197;-78
2021/04/29 01:54:06;;;;;;;62.93;37.10;;;7.70;99.90;;;;;;5033209;28;20200;-82
2021/04/29 01:56:33;;;;;;;56.50;35.53;;;7.60;99.90;;;;;;5023277;28;20279;-81
2021/04/29 01:58:59;;;;;;;66.63;38.87;;;7.60;99.90;;;;;;5010746;28;20922;-74
2021/04/29 02:01:28;;;;;;;66.17;40.17;;;7.70;99.90;;;;;;5013970;28;20225;-78
2021/04/29 02:03:56;;;;;;;61.50;38.80;;;7.70;99.90;;;;;;5021526;28;20212;-79
2021/04/29 02:06:23;;;;;;;70.50;40.30;;;7.70;99.90;;;;;;5029448;28;20209;-82
2021/04/29 02:08:50;;;;;;;69.13;39.93;;;7.70;99.90;;;;;;5028802;28;20528;-79
2021/04/29 02:11:16;;;;;;;62.53;37.50;;;7.70;99.90;;;;;;5030142;28;20196;-79
2021/04/29 02:13:47;;;;;;;67.10;36.97;;;7.80;99.90;;;;;;5030829;28;20251;-71
2021/04/29 02:16:16;;;;;;;67.53;37.17;;;7.80;99.90;;;;;;5028765;28;20203;-78
2021/04/29 02:18:47;;;;;;;61.47;34.37;;;7.80;99.90;;;;;;5034468;28;20196;-79
2021/04/29 02:21:16;;;;;;;57.83;33.20;;;7.80;99.90;;;;;;5021873;28;20212;-79
2021/04/29 02:23:45;;;;;;;60.70;33.87;;;7.80;99.90;;;;;;5032050;28;20210;-80
2021/04/29 02:26:13;;;;;;;57.13;32.23;;;7.80;99.90;;;;;;5020426;28;20241;-77
2021/04/29 02:28:41;;;;;;;57.40;33.20;;;7.80;99.90;;;;;;5013548;28;20197;-80
2021/04/29 02:31:08;;;;;;;57.27;32.33;;;7.80;99.90;;;;;;5008592;28;20197;-77
2021/04/29 02:33:35;;;;;;;53.77;31.83;;;7.80;99.90;;;;;;5013465;28;20208;-79
2021/04/29 02:36:04;;;;;;;56.90;32.43;;;7.80;99.90;;;;;;5024545;28;20204;-79
2021/04/29 02:38:32;;;;;;;59.97;31.10;;;7.80;99.90;;;;;;5021297;28;20200;-79
2021/04/29 02:40:59;;;;;;;58.13;32.33;;;7.80;99.90;;;;;;5014881;28;20555;-81
2021/04/29 02:43:26;;;;;;;60.83;31.93;;;7.80;99.90;;;;;;5010964;28;20201;-80
2021/04/29 02:45:53;;;;;;;53.13;29.53;;;7.80;99.90;;;;;;5007066;28;20208;-77
2021/04/29 02:48:21;;;;;;;59.37;30.70;;;7.80;99.90;;;;;;5010145;28;20205;-79
2021/04/29 02:50:47;;;;;;;55.57;28.97;;;7.80;99.90;;;;;;5014900;28;20212;-80
2021/04/29 02:53:14;;;;;;;49.50;29.17;;;7.80;99.90;;;;;;5013818;28;20263;-80
2021/04/29 02:55:44;;;;;;;56.87;30.33;;;7.80;99.90;;;;;;5020419;28;20645;-80
2021/04/29 02:58:11;;;;;;;44.40;28.17;;;7.80;99.90;;;;;;5033595;28;20200;-78
2021/04/29 03:00:38;;;;;;;51.13;26.57;;;7.70;99.90;;;;;;5016757;28;20223;-79
2021/04/29 03:03:07;;;;;;;54.97;28.70;;;7.70;99.90;;;;;;5032707;28;20259;-79
2021/04/29 03:05:33;;;;;;;53.40;27.23;;;7.70;99.90;;;;;;5017600;28;20568;-79
2021/04/29 03:08:00;;;;;;;52.63;27.03;;;7.70;99.90;;;;;;5012510;28;20603;-79
2021/04/29 03:10:27;;;;;;;50.43;26.43;;;7.70;99.90;;;;;;5017090;28;20224;-79
2021/04/29 03:12:54;;;;;;;46.03;27.93;;;7.70;99.90;;;;;;5016618;28;20202;-80
2021/04/29 03:15:22;;;;;;;45.97;26.43;;;7.70;99.90;;;;;;5014173;28;20279;-72
2021/04/29 03:17:48;;;;;;;50.23;26.77;;;7.70;99.90;;;;;;5010311;28;20213;-80
2021/04/29 03:20:15;;;;;;;54.50;26.20;;;7.70;99.90;;;;;;5013978;28;20223;-78
2021/04/29 03:22:41;;;;;;;46.80;25.70;;;7.70;99.90;;;;;;5007276;28;20192;-79
2021/04/29 03:25:09;;;;;;;43.13;25.03;;;7.70;99.90;;;;;;5014380;28;20239;-79
2021/04/29 03:27:35;;;;;;;48.83;25.90;;;7.70;99.90;;;;;;5014628;28;20217;-80
2021/04/29 03:30:04;;;;;;;52.57;24.00;;;7.70;99.90;;;;;;5009822;28;20232;-80
2021/04/29 03:32:30;;;;;;;52.80;25.87;;;7.70;99.90;;;;;;5028086;28;20200;-80
2021/04/29 03:34:57;;;;;;;52.93;24.70;;;7.70;99.90;;;;;;5019122;28;20265;-79
2021/04/29 03:37:23;;;;;;;48.80;23.63;;;7.70;99.90;;;;;;5025268;28;20216;-80
2021/04/29 03:39:50;;;;;;;50.70;24.50;;;7.70;99.90;;;;;;5015806;28;20212;-80
2021/04/29 03:42:17;;;;;;;46.87;23.77;;;7.70;99.90;;;;;;5018002;28;20201;-80
2021/04/29 03:44:43;;;;;;;45.33;23.07;;;7.70;99.90;;;;;;5016171;28;20196;-81
2021/04/29 03:47:11;;;;;;;58.07;23.27;;;7.70;99.90;;;;;;5024042;28;20605;-77
2021/04/29 03:49:37;;;;;;;49.57;24.67;;;7.70;99.90;;;;;;5011411;28;20643;-78
2021/04/29 03:52:04;;;;;;;55.70;23.57;;;7.70;99.90;;;;;;5013128;28;20197;-79
2021/04/29 03:54:30;;;;;;;53.97;25.03;;;7.70;99.90;;;;;;5010449;28;20243;-81
2021/04/29 03:56:57;;;;;;;42.40;24.40;;;7.80;99.90;;;;;;5012001;28;20209;-76
2021/04/29 03:59:23;;;;;;;43.77;23.97;;;7.70;99.90;;;;;;5011662;28;20203;-79
2021/04/29 04:01:50;;;;;;;50.83;24.23;;;7.80;99.90;;;;;;5021011;28;20654;-79
2021/04/29 04:04:18;;;;;;;46.00;23.90;;;7.80;99.90;;;;;;5020942;28;20193;-78
2021/04/29 04:06:44;;;;;;;53.13;24.40;;;7.80;99.90;;;;;;5019910;28;20207;-79
2021/04/29 04:09:11;;;;;;;48.43;24.73;;;7.80;99.90;;;;;;5023478;28;20685;-79
2021/04/29 04:11:37;;;;;;;53.10;23.77;;;7.80;99.90;;;;;;5025288;28;20208;-78
2021/04/29 04:14:04;;;;;;;51.93;25.10;;;7.80;99.90;;;;;;5022935;28;22229;-79
2021/04/29 04:16:30;;;;;;;54.03;24.43;;;7.80;99.90;;;;;;5015608;28;20659;-79
2021/04/29 04:18:57;;;;;;;55.90;25.97;;;7.90;99.90;;;;;;5019617;28;20701;-80
2021/04/29 04:21:24;;;;;;;56.37;26.43;;;7.80;99.90;;;;;;5024741;28;20238;-77
2021/04/29 04:23:51;;;;;;;59.60;27.10;;;7.80;99.90;;;;;;5015455;28;20542;-78
2021/04/29 04:26:17;;;;;;;48.20;24.70;;;7.80;99.90;;;;;;5025994;28;20208;-75
2021/04/29 04:28:44;;;;;;;54.43;26.77;;;7.80;99.90;;;;;;5015354;28;20199;-78
2021/04/29 04:31:10;;;;;;;49.60;26.13;;;7.80;99.90;;;;;;5027888;28;20196;-80
2021/04/29 04:33:37;;;;;;;55.17;27.47;;;7.80;99.90;;;;;;5018108;28;20205;-78
2021/04/29 04:36:04;;;;;;;50.43;28.67;;;7.80;99.90;;;;;;5019711;28;20207;-78
2021/04/29 04:38:32;;;;;;;59.20;29.73;;;7.80;99.90;;;;;;5024183;28;20650;-78
2021/04/29 04:40:59;;;;;;;59.10;28.97;;;7.80;99.90;;;;;;5023306;28;20220;-79
2021/04/29 04:43:25;;;;;;;49.40;26.83;;;7.80;99.90;;;;;;5021767;28;20234;-79
2021/04/29 04:45:52;;;;;;;47.07;25.90;;;7.80;99.90;;;;;;5030593;28;20203;-79
2021/04/29 04:48:18;;;;;;;51.30;26.57;;;7.70;99.90;;;;;;5036076;28;20286;-80
2021/04/29 04:50:45;;;;;;;48.40;24.43;;;7.70;99.90;;;;;;5028482;28;20203;-78
2021/04/29 04:53:11;;;;;;;52.90;25.70;;;7.70;99.90;;;;;;5027300;28;20197;-74
2021/04/29 04:55:46;;;;;;;50.80;25.03;;;7.70;99.90;;;;;;5024283;28;20217;-83
2021/04/29 04:58:12;;;;;;;49.50;23.57;;;7.70;99.90;;;;;;5036084;28;20188;-81
2021/04/29 05:00:39;;;;;;;50.17;24.23;;;7.70;99.90;;;;;;5028482;28;20231;-85
2021/04/29 05:03:06;;;;;;;47.63;24.90;;;7.70;99.90;;;;;;5036180;28;20200;-83
2021/04/29 05:05:32;;;;;;;43.90;24.03;;;7.60;99.90;;;;;;5035225;28;20208;-86
2021/04/29 05:08:01;;;;;;;48.67;24.73;;;7.50;99.90;;;;;;5036011;28;20196;-80
2021/04/29 05:10:29;;;;;;;41.73;23.37;;;7.40;99.90;;;;;;5027271;28;20203;-84
2021/04/29 05:12:57;;;;;;;44.10;23.67;;;7.40;99.90;;;;;;5036588;28;20557;-85
2021/04/29 05:15:23;;;;;;;45.37;25.53;;;7.40;99.90;;;;;;5031578;28;20665;-87
2021/04/29 05:17:51;;;;;;;46.40;25.90;;;7.40;99.90;;;;;;5023939;28;20203;-81
2021/04/29 05:20:18;;;;;;;40.27;24.90;;;7.30;99.90;;;;;;5018760;28;20286;-83
2021/04/29 05:22:46;;;;;;;42.70;26.03;;;7.30;99.90;;;;;;5016440;28;20201;-84
2021/04/29 05:25:12;;;;;;;42.13;25.87;;;7.10;99.90;;;;;;5015899;28;20200;-83
2021/04/29 05:27:39;;;;;;;42.23;25.03;;;7.10;99.90;;;;;;5024738;28;20561;-82
2021/04/29 05:30:08;;;;;;;40.77;25.00;;;7.10;99.90;;;;;;5019591;28;20294;-81
2021/04/29 05:32:34;;;;;;;42.53;25.57;;;7.10;99.90;;;;;;5018991;28;20192;-81
2021/04/29 05:35:01;;;;;;;50.27;26.53;;;7.10;99.90;;;;;;5016945;28;20204;-76
2021/04/29 05:37:27;;;;;;;46.83;27.37;;;7.10;99.90;;;;;;5025442;28;20196;-81
2021/04/29 05:39:54;;;;;;;46.67;27.93;;;7.00;99.90;;;;;;5022507;28;20216;-83
2021/04/29 05:42:20;;;;;;;45.43;26.13;;;7.00;99.90;;;;;;5031163;28;20657;-82
2021/04/29 05:44:47;;;;;;;42.57;26.97;;;7.00;99.90;;;;;;5034039;28;20641;-82
2021/04/29 05:47:14;;;;;;;39.93;25.83;;;6.90;99.90;;;;;;5033577;28;20200;-83
2021/04/29 05:49:42;;;;;;;43.27;25.27;;;6.80;99.90;;;;;;5030462;28;20200;-80
2021/04/29 05:52:08;;;;;;;43.60;27.23;;;6.80;99.90;;;;;;5030307;28;20243;-84
2021/04/29 05:54:35;;;;;;;45.27;26.03;;;6.70;99.90;;;;;;5034374;28;20203;-75
2021/04/29 05:57:01;;;;;;;41.90;26.40;;;6.70;99.90;;;;;;5027673;28;20240;-81
2021/04/29 05:59:28;;;;;;;42.03;27.40;;;6.60;99.90;;;;;;5031667;28;20208;-79
2021/04/29 06:01:54;;;;;;;41.83;26.50;;;6.50;99.90;;;;;;5032831;28;20193;-79
2021/04/29 06:04:22;;;;;;;39.83;25.77;;;6.40;99.90;;;;;;5023987;28;20597;-79
2021/04/29 06:06:49;;;;;;;44.80;25.93;;;6.40;99.90;;;;;;5032398;28;20200;-75
2021/04/29 06:09:16;;;;;;;37.93;25.00;;;6.30;99.90;;;;;;5034532;28;20558;-72
2021/04/29 06:11:42;;;;;;;40.33;25.47;;;6.40;99.90;;;;;;5031886;28;20247;-80
2021/04/29 06:14:10;;;;;;;38.67;25.33;;;6.30;99.90;;;;;;5026341;28;20200;-81
2021/04/29 06:16:37;;;;;;;36.70;25.30;;;6.30;99.90;;;;;;5031712;28;20290;-80
2021/04/29 06:19:04;;;;;;;35.90;23.50;;;6.40;99.90;;;;;;5028402;28;20558;-80
2021/04/29 06:21:31;;;;;;;31.93;23.97;;;6.40;99.90;;;;;;5032099;28;20768;-75
2021/04/29 06:23:57;;;;;;;32.50;22.67;;;6.40;99.90;;;;;;5020796;28;20208;-69
2021/04/29 06:26:24;;;;;;;33.93;23.63;;;6.40;99.90;;;;;;5029700;28;20259;-77
2021/04/29 06:28:50;;;;;;;37.03;24.50;;;6.50;99.90;;;;;;5032987;28;20204;-81
2021/04/29 06:31:18;;;;;;;35.70;23.73;;;6.50;99.90;;;;;;5024845;28;20207;-81
2021/04/29 06:33:44;;;;;;;36.57;23.57;;;6.50;99.90;;;;;;5034230;28;20196;-79
2021/04/29 06:36:10;;;;;;;37.30;24.10;;;6.40;99.90;;;;;;5018440;28;20201;-81
2021/04/29 06:38:38;;;;;;;39.57;23.97;;;6.40;99.90;;;;;;5025855;28;20246;-81
2021/04/29 06:41:05;;;;;;;40.70;24.93;;;6.50;99.90;;;;;;5014542;28;20228;-78
2021/04/29 06:43:31;;;;;;;41.20;24.77;;;6.50;99.90;;;;;;5015337;28;20204;-69
2021/04/29 06:45:58;;;;;;;41.63;25.60;;;6.50;99.90;;;;;;5023129;28;20205;-72
2021/04/29 06:48:24;;;;;;;38.33;24.43;;;6.50;99.90;;;;;;5022795;28;20209;-70
2021/04/29 06:50:51;;;;;;;37.17;23.43;;;6.50;99.90;;;;;;5019952;28;20530;-67
2021/04/29 06:53:17;;;;;;;37.07;24.03;;;6.50;99.90;;;;;;5026844;28;20208;-74
2021/04/29 06:55:44;;;;;;;36.17;23.03;;;6.60;99.90;;;;;;5017369;28;20193;-70
2021/04/29 06:58:11;;;;;;;31.93;22.83;;;6.60;99.90;;;;;;5019191;28;20230;-73
2021/04/29 07:00:37;;;;;;;34.63;22.87;;;6.50;99.90;;;;;;5028754;28;20220;-69
2021/04/29 07:03:04;;;;;;;33.83;23.00;;;6.50;99.90;;;;;;5030021;28;20200;-69
2021/04/29 07:05:31;;;;;;;32.40;22.47;;;6.60;99.90;;;;;;5022919;28;20204;-75
2021/04/29 07:07:57;;;;;;;36.47;22.63;;;6.60;99.90;;;;;;5023091;28;20292;-69
2021/04/29 07:10:25;;;;;;;33.63;23.70;;;6.60;99.90;;;;;;5012999;28;20211;-72
2021/04/29 07:12:52;;;;;;;35.67;22.93;;;6.50;99.90;;;;;;5025288;28;20266;-76
2021/04/29 07:15:19;;;;;;;34.43;23.60;;;6.60;99.90;;;;;;5017642;28;20212;-75
2021/04/29 07:17:46;;;;;;;31.70;22.77;;;6.50;99.90;;;;;;5027553;28;20236;-71
2021/04/29 07:20:13;;;;;;;34.83;22.47;;;6.60;99.90;;;;;;5026674;28;20705;-68
2021/04/29 07:22:50;;;;;;;30.10;20.80;;;6.60;99.90;;;;;;5026322;28;20200;-74
2021/04/29 07:25:28;;;;;;;31.67;21.67;;;6.60;99.90;;;;;;5025059;28;20649;-73
2021/04/29 07:27:58;;;;;;;31.40;21.70;;;6.60;99.90;;;;;;5026250;28;20207;-75
2021/04/29 07:30:35;;;;;;;30.63;20.97;;;6.60;99.90;;;;;;5030491;28;20232;-75
2021/04/29 07:33:11;;;;;;;31.93;20.33;;;6.60;99.90;;;;;;5024139;28;20207;-76
2021/04/29 07:35:49;;;;;;;31.20;20.73;;;6.60;99.90;;;;;;5022451;28;20222;-74
2021/04/29 07:38:28;;;;;;;30.90;20.97;;;6.60;99.90;;;;;;5026911;28;20238;-84
2021/04/29 07:41:06;;;;;;;31.43;21.27;;;6.60;99.90;;;;;;5023356;28;20812;-77
2021/04/29 07:43:34;;;;;;;29.67;21.10;;;6.70;99.90;;;;;;5019754;28;20650;-81
2021/04/29 07:46:01;;;;;;;38.10;23.03;;;6.70;99.90;;;;;;5027122;28;20201;-83
2021/04/29 07:48:28;;;;;;;37.87;24.03;;;6.70;99.90;;;;;;5029549;28;20204;-71
2021/04/29 07:50:55;;;;;;;35.10;23.17;;;6.80;99.90;;;;;;5023451;28;20268;-81
2021/04/29 07:53:22;;;;;;;28.07;21.07;;;6.80;99.90;;;;;;5024135;28;20208;-79
2021/04/29 07:55:48;;;;;;;30.17;21.77;;;6.90;99.90;;;;;;5030677;28;20211;-82
2021/04/29 07:58:15;;;;;;;27.47;20.30;;;6.80;99.90;;;;;;5029977;28;20201;-81
2021/04/29 08:00:43;;;;;;;23.93;17.80;;;6.80;99.90;;;;;;5025273;28;20239;-70
2021/04/29 08:03:09;;;;;;;22.60;16.37;;;6.80;99.90;;;;;;5024813;28;20209;-80
2021/04/29 08:05:36;;;;;;;26.23;16.50;;;6.80;99.90;;;;;;5031349;28;20204;-79
2021/04/29 08:08:02;;;;;;;21.10;16.07;;;6.70;99.90;;;;;;5028359;28;20224;-79
2021/04/29 08:10:29;;;;;;;27.07;16.37;;;6.80;99.90;;;;;;5028266;28;20216;-81
2021/04/29 08:12:56;;;;;;;24.70;17.30;;;6.90;99.90;;;;;;5026178;28;20192;-83
2021/04/29 08:15:24;;;;;;;23.47;15.67;;;6.90;99.90;;;;;;5020745;28;20208;-85
2021/04/29 08:17:52;;;;;;;21.43;15.97;;;6.80;99.90;;;;;;5026956;28;20211;-80
2021/04/29 08:20:18;;;;;;;20.40;15.23;;;6.70;99.90;;;;;;5025257;28;20232;-80
2021/04/29 08:22:46;;;;;;;21.87;15.13;;;6.70;99.90;;;;;;5025556;28;20204;-78
2021/04/29 08:25:13;;;;;;;19.97;15.57;;;6.60;99.90;;;;;;5024588;28;20243;-79
2021/04/29 08:27:40;;;;;;;18.63;13.97;;;6.60;99.90;;;;;;5024649;28;20196;-83
2021/04/29 08:30:09;;;;;;;27.00;16.27;;;6.70;99.90;;;;;;5035850;28;20285;-80
2021/04/29 08:32:36;;;;;;;21.10;15.20;;;6.70;99.90;;;;;;5016576;28;20655;-81
2021/04/29 08:35:03;;;;;;;24.00;16.80;;;6.80;99.90;;;;;;5026377;28;20247;-79
2021/04/29 08:37:30;;;;;;;24.23;16.67;;;6.80;99.90;;;;;;5032394;28;20196;-80
2021/04/29 08:39:56;;;;;;;23.57;16.50;;;6.80;99.90;;;;;;5015576;28;20557;-80
2021/04/29 08:42:26;;;;;;;24.97;16.53;;;6.90;99.90;;;;;;5027944;28;20212;-80
2021/04/29 08:44:53;;;;;;;21.30;16.07;;;7.10;99.90;;;;;;5031111;28;20291;-79
2021/04/29 08:47:20;;;;;;;19.77;15.37;;;7.00;99.90;;;;;;5031424;28;20205;-79
2021/04/29 08:49:48;;;;;;;23.33;16.73;;;6.90;99.90;;;;;;5033843;28;20204;-85
2021/04/29 08:52:16;;;;;;;24.20;15.77;;;6.90;99.90;;;;;;5024922;28;20212;-79
2021/04/29 08:54:46;;;;;;;20.67;14.23;;;6.90;99.90;;;;;;5027290;28;20215;-78
2021/04/29 08:57:13;;;;;;;18.33;13.60;;;7.00;99.90;;;;;;5030322;28;20235;-84
2021/04/29 08:59:40;;;;;;;22.53;14.57;;;7.00;99.90;;;;;;5018914;28;20208;-80
2021/04/29 09:02:07;;;;;;;21.70;15.83;;;7.20;99.90;;;;;;5028060;28;20224;-82
2021/04/29 09:04:39;;;;;;;20.27;15.37;;;7.20;99.90;;;;;;5033105;28;20646;-75
2021/04/29 09:07:14;;;;;;;20.57;15.07;;;7.20;99.90;;;;;;5023417;28;20201;-83
2021/04/29 09:09:45;;;;;;;20.73;14.53;;;7.20;99.90;;;;;;5031798;28;20266;-79
2021/04/29 09:12:12;;;;;;;21.90;15.00;;;7.20;99.90;;;;;;5021602;28;20200;-84
2021/04/29 09:14:41;;;;;;;20.93;14.67;;;7.10;99.90;;;;;;5021651;28;20209;-84
2021/04/29 09:17:22;;;;;;;22.77;16.13;;;7.20;99.90;;;;;;5030759;28;20208;-83
2021/04/29 09:19:50;;;;;;;19.60;15.33;;;7.50;99.90;;;;;;5033774;28;20255;-78
2021/04/29 09:22:18;;;;;;;21.17;16.70;;;7.80;99.90;;;;;;5028958;28;20207;-78
2021/04/29 09:24:46;;;;;;;22.90;15.83;;;8.10;99.90;;;;;;5026466;28;20760;-78
2021/04/29 09:27:14;;;;;;;22.00;16.70;;;8.20;99.90;;;;;;5028258;28;20201;-84
2021/04/29 09:30:04;;;;;;;18.37;15.33;;;8.30;99.90;;;;;;5023094;28;20235;-87
2021/04/29 09:32:34;;;;;;;19.20;14.63;;;8.40;99.90;;;;;;5021904;28;20200;-80
2021/04/29 09:35:08;;;;;;;15.93;12.27;;;8.40;99.90;;;;;;5018996;28;20279;-86
2021/04/29 09:37:54;;;;;;;17.17;11.73;;;8.20;99.90;;;;;;5033783;28;20291;-81
2021/04/29 09:40:34;;;;;;;16.03;11.67;;;7.90;99.90;;;;;;5019581;28;20312;-79
2021/04/29 09:43:11;;;;;;;13.93;10.80;;;7.80;99.90;;;;;;5021694;28;20235;-81
2021/04/29 09:45:45;;;;;;;14.10;10.77;;;7.80;99.90;;;;;;5023224;28;20239;-84
2021/04/29 09:48:20;;;;;;;14.13;10.63;;;7.80;99.90;;;;;;5030365;28;20204;-82
2021/04/29 09:50:52;;;;;;;13.93;11.33;;;7.70;99.90;;;;;;5025560;28;20204;-82
2021/04/29 09:53:52;;;;;;;14.37;10.43;;;7.70;99.90;;;;;;5019011;28;20212;-81
2021/04/29 09:56:25;;;;;;;19.70;11.13;;;7.70;99.90;;;;;;5003140;28;20208;-81
2021/04/29 09:59:00;;;;;;;14.03;10.57;;;7.60;99.90;;;;;;5003376;28;20289;-83
2021/04/29 10:01:31;;;;;;;15.83;12.00;;;7.50;99.90;;;;;;5000359;28;20247;-85
2021/04/29 10:04:03;;;;;;;15.97;10.90;;;7.40;99.90;;;;;;5020025;28;20535;-83
2021/04/29 10:06:35;;;;;;;13.63;10.43;;;7.40;99.90;;;;;;5027513;28;20201;-82
2021/04/29 10:09:08;;;;;;;15.20;11.47;;;7.50;99.90;;;;;;4995288;28;20201;-81
2021/04/29 10:11:45;;;;;;;14.73;10.87;;;7.50;99.90;;;;;;5014783;28;20572;-83
2021/04/29 10:14:19;;;;;;;14.13;10.80;;;7.70;99.90;;;;;;5019213;28;20216;-82
2021/04/29 10:16:50;;;;;;;14.40;11.50;;;7.90;99.90;;;;;;5029721;28;20205;-78
2021/04/29 10:19:50;;;;;;;15.23;11.27;;;7.90;99.90;;;;;;5032448;28;20219;-81
2021/04/29 10:23:07;;;;;;;15.57;11.57;;;8.10;99.90;;;;;;5019647;28;20212;-81
2021/04/29 10:26:09;;;;;;;14.50;11.17;;;8.30;99.90;;;;;;5025539;28;20205;-82
2021/04/29 10:28:48;;;;;;;13.00;11.23;;;8.60;99.90;;;;;;5021524;28;20306;-80
2021/04/29 10:31:20;;;;;;;16.53;11.30;;;8.80;99.90;;;;;;5023566;28;20216;-79
2021/04/29 10:34:05;;;;;;;14.47;10.50;;;8.80;99.90;;;;;;5021780;28;20288;-81
2021/04/29 10:36:41;;;;;;;14.17;10.53;;;8.90;99.90;;;;;;5025519;28;20201;-81
2021/04/29 10:39:29;;;;;;;12.67;10.03;;;9.00;99.90;;;;;;5022438;28;20212;-81
2021/04/29 10:42:14;;;;;;;16.07;11.40;;;8.80;99.90;;;;;;5020116;28;20355;-80
2021/04/29 10:45:05;;;;;;;15.10;10.43;;;9.10;99.90;;;;;;5017698;28;20206;-80
2021/04/29 10:47:41;;;;;;;11.93;9.33;;;9.20;99.90;;;;;;5019268;28;20215;-80
2021/04/29 10:53:42;;;;;;;12.30;10.10;;;10.40;99.90;;;;;;5021942;28;20592;-77
2021/04/29 10:56:22;;;;;;;8.40;6.93;;;11.20;99.90;;;;;;5015187;28;20287;-76
2021/04/29 10:58:55;;;;;;;10.43;7.23;;;11.30;99.90;;;;;;5020021;28;20204;-77
2021/04/29 11:01:43;;;;;;;8.20;7.10;;;10.50;99.90;;;;;;5022566;28;20235;-75
2021/04/29 11:04:23;;;;;;;9.13;8.10;;;10.00;99.90;;;;;;5020940;28;20211;-79
2021/04/29 11:06:56;;;;;;;10.43;8.73;;;10.10;99.90;;;;;;5022426;28;20212;-77
2021/04/29 11:09:28;;;;;;;13.53;8.47;;;10.50;99.90;;;;;;5025336;28;20667;-77
2021/04/29 11:12:09;;;;;;;8.13;7.33;;;10.60;99.90;;;;;;5026523;28;20279;-77
2021/04/29 11:14:46;;;;;;;10.33;8.13;;;10.10;99.90;;;;;;5019391;28;20259;-79
2021/04/29 11:17:36;;;;;;;11.97;8.07;;;10.50;99.90;;;;;;5023410;28;20204;-77
2021/04/29 11:20:10;;;;;;;14.33;8.43;;;11.40;99.90;;;;;;5024385;28;20296;-77
2021/04/29 11:22:49;;;;;;;11.47;7.73;;;11.70;99.90;;;;;;5018686;28;20287;-76
2021/04/29 11:25:22;;;;;;;9.70;7.97;;;11.50;99.90;;;;;;5020227;28;20197;-77
2021/04/29 11:27:58;;;;;;;10.10;7.93;;;11.30;99.90;;;;;;5020343;28;20299;-75
2021/04/29 11:30:31;;;;;;;10.90;7.93;;;11.20;99.90;;;;;;5020724;28;20720;-76
2021/04/29 11:33:06;;;;;;;11.90;8.33;;;11.20;99.90;;;;;;5019993;28;20945;-76
2021/04/29 11:35:48;;;;;;;9.17;6.97;;;11.10;99.90;;;;;;5023448;28;20219;-76
2021/04/29 11:38:25;;;;;;;12.07;7.90;;;11.00;99.90;;;;;;5018479;28;20217;-77
2021/04/29 11:40:56;;;;;;;10.43;7.10;;;11.00;99.90;;;;;;5020984;28;20232;-77
2021/04/29 11:43:40;;;;;;;9.17;7.03;;;11.10;99.90;;;;;;5023748;28;20538;-77
2021/04/29 11:46:38;;;;;;;9.13;7.30;;;11.10;99.90;;;;;;5030377;28;20239;-77
2021/04/29 11:49:14;;;;;;;9.83;7.70;;;11.40;99.90;;;;;;5016333;28;20283;-77
2021/04/29 11:51:51;;;;;;;9.50;7.03;;;11.80;99.90;;;;;;5024435;28;20200;-78
2021/04/29 11:54:22;;;;;;;10.10;7.20;;;12.30;99.90;;;;;;5021397;28;20200;-76
2021/04/29 11:57:01;;;;;;;9.50;6.63;;;12.80;99.90;;;;;;5023420;28;20207;-75
2021/04/29 11:59:32;;;;;;;7.60;6.47;;;13.00;99.90;;;;;;5027349;28;20208;-75
2021/04/29 12:02:01;;;;;;;9.63;6.53;;;13.50;99.90;;;;;;5025040;28;20598;-72
2021/04/29 12:04:30;;;;;;;7.10;5.90;;;14.20;99.90;;;;;;5029622;28;20201;-82
2021/04/29 12:06:59;;;;;;;7.87;6.17;;;14.00;99.90;;;;;;5018812;28;20291;-73
2021/04/29 12:09:27;;;;;;;7.23;6.37;;;13.70;99.90;;;;;;5013790;28;20678;-70
2021/04/29 12:11:59;;;;;;;5.97;5.37;;;13.60;99.90;;;;;;5018188;28;20208;-74
2021/04/29 12:14:29;;;;;;;6.40;5.80;;;13.20;99.90;;;;;;5012447;28;20276;-73
2021/04/29 12:17:03;;;;;;;6.30;5.77;;;12.50;99.90;;;;;;5014218;28;20201;-76
2021/04/29 12:19:39;;;;;;;7.77;6.50;;;12.10;99.90;;;;;;5014136;28;20287;-76
2021/04/29 12:22:16;;;;;;;7.07;5.70;;;11.90;99.90;;;;;;5014338;28;20349;-75
2021/04/29 12:24:47;;;;;;;7.73;5.57;;;12.20;99.90;;;;;;5020185;28;20292;-76
2021/04/29 12:27:23;;;;;;;7.37;6.40;;;12.60;99.90;;;;;;5021767;28;20204;-77
2021/04/29 12:30:01;;;;;;;7.53;6.27;;;12.80;99.90;;;;;;5028048;28;20227;-74
2021/04/29 12:32:38;;;;;;;7.00;6.23;;;12.70;99.90;;;;;;5031108;28;20204;-75
2021/04/29 12:35:07;;;;;;;8.13;6.40;;;12.70;99.90;;;;;;5019698;28;20209;-72
2021/04/29 12:37:34;;;;;;;9.73;6.50;;;12.80;99.90;;;;;;5014763;28;20201;-76
2021/04/29 12:40:00;;;;;;;8.57;5.63;;;12.80;99.90;;;;;;5019312;28;20204;-74
2021/04/29 12:42:27;;;;;;;6.67;6.07;;;12.90;99.90;;;;;;5028640;28;20599;-70
2021/04/29 12:44:58;;;;;;;8.53;6.00;;;12.90;99.90;;;;;;5026820;28;20209;-73
2021/04/29 12:47:26;;;;;;;5.77;5.17;;;13.00;99.90;;;;;;5012081;28;20205;-73
2021/04/29 12:50:03;;;;;;;7.97;5.73;;;13.30;99.90;;;;;;5028202;28;21923;-73
2021/04/29 12:52:31;;;;;;;5.60;5.10;;;13.70;99.90;;;;;;5029354;28;20211;-74
2021/04/29 12:54:58;;;;;;;5.33;4.90;;;14.00;99.90;;;;;;5023477;28;20601;-73